North Massapequa, New York
Current Conditions -  °F | °C
As of 11:53 AM on Tuesday 21 Oct 2014 (Local Time) from KFRG Reporting Station
Scattered Clouds Scattered Clouds  
Wind Chill: 67°   Ceiling: Unl
Heat Index: 67°   Visibility: 10mi
Dew Point: 50°   Wind: 15mph
Humidity: 54%   Direction: 140°SE
Pressure: 29.89"   Gusts: NA
Location:  40.685°N, 73.4685°W
Report Text: KFRG 211553Z 14013KT 10SM SCT070 SCT090 19/10 A2989 RMK AO2 SLP120 T01940100
Loading
Personal Weather Stations






























Interactive Weather Map
Tropical Storm Tracking
New forecast layout! Learn more

10-Day Weather Forecast

Advertisements
Track Severe Weather on mobile